createdAt,value
2022-12-31T00:02:31.902Z,12.15
2022-12-31T00:05:21.352Z,12.18
2022-12-31T00:08:08.804Z,12.17
2022-12-31T00:10:56.561Z,12.20
2022-12-31T00:13:44.400Z,12.04
2022-12-31T00:16:36.631Z,12.26
2022-12-31T00:19:25.031Z,12.15
2022-12-31T00:22:14.106Z,12.04
2022-12-31T00:25:01.675Z,12.12
2022-12-31T00:27:48.947Z,12.01
2022-12-31T00:30:36.451Z,11.98
2022-12-31T00:33:24.039Z,12.08
2022-12-31T00:36:14.374Z,11.90
2022-12-31T00:39:04.636Z,11.79
2022-12-31T00:41:51.908Z,11.91
2022-12-31T00:44:39.264Z,11.89
2022-12-31T00:47:26.566Z,11.96
2022-12-31T00:50:14.373Z,11.92
2022-12-31T00:53:01.702Z,11.91
2022-12-31T00:55:53.459Z,11.89
2022-12-31T00:58:41.439Z,11.93
2022-12-31T01:01:31.123Z,11.94
2022-12-31T01:04:21.172Z,11.90
2022-12-31T01:07:08.365Z,11.83
2022-12-31T01:09:55.658Z,11.80
2022-12-31T01:12:45.025Z,11.75
2022-12-31T01:15:35.777Z,11.93
2022-12-31T01:18:23.725Z,11.84
2022-12-31T01:21:12.616Z,11.79
2022-12-31T01:24:00.697Z,11.79
2022-12-31T01:26:48.963Z,11.77
2022-12-31T01:29:38.473Z,11.85
2022-12-31T01:32:26.247Z,11.89
2022-12-31T01:35:13.716Z,12.02
2022-12-31T01:38:00.971Z,12.18
2022-12-31T01:40:48.387Z,12.23
2022-12-31T01:43:51.304Z,12.28
2022-12-31T01:46:43.819Z,12.10
2022-12-31T01:49:37.877Z,12.00
2022-12-31T01:52:30.357Z,11.96
2022-12-31T01:55:22.703Z,12.03
2022-12-31T01:58:13.201Z,12.02
2022-12-31T02:01:01.008Z,12.11
2022-12-31T02:03:49.778Z,12.11
2022-12-31T02:06:41.465Z,12.08
2022-12-31T02:09:29.220Z,12.18
2022-12-31T02:12:17.006Z,12.08
2022-12-31T02:15:05.054Z,12.01
2022-12-31T02:18:02.567Z,11.97
2022-12-31T02:21:15.817Z,12.04
2022-12-31T02:24:32.777Z,11.90
2022-12-31T02:27:35.100Z,11.93
2022-12-31T02:30:26.284Z,11.90
2022-12-31T02:33:20.918Z,11.91
2022-12-31T02:36:13.546Z,12.02
2022-12-31T02:39:02.438Z,12.20
2022-12-31T02:41:53.938Z,12.02
2022-12-31T02:44:43.314Z,12.18
2022-12-31T02:47:48.324Z,12.12
2022-12-31T02:50:55.704Z,12.10
2022-12-31T02:54:13.166Z,11.97
2022-12-31T02:57:11.928Z,12.10
2022-12-31T03:00:19.928Z,12.05
2022-12-31T03:03:10.492Z,12.11
2022-12-31T03:05:59.667Z,12.24
2022-12-31T03:09:00.654Z,12.28
2022-12-31T03:12:05.348Z,12.36
2022-12-31T03:14:52.935Z,12.31
2022-12-31T03:17:40.705Z,12.34
2022-12-31T03:20:50.341Z,12.45
2022-12-31T03:23:41.223Z,12.38
2022-12-31T03:26:27.393Z,12.40
2022-12-31T03:29:14.967Z,12.41
2022-12-31T03:32:02.224Z,12.50
2022-12-31T03:34:56.061Z,12.58
2022-12-31T03:37:45.126Z,12.62
2022-12-31T03:40:34.543Z,12.60
2022-12-31T03:43:22.224Z,12.70
2022-12-31T03:46:09.789Z,12.82
2022-12-31T03:48:57.363Z,12.83
2022-12-31T03:51:44.649Z,12.78
2022-12-31T03:54:33.337Z,12.76
2022-12-31T03:57:21.032Z,12.79
2022-12-31T04:00:11.031Z,12.77
2022-12-31T04:02:58.856Z,12.89
2022-12-31T04:05:46.437Z,13.00
2022-12-31T04:08:33.608Z,12.98
2022-12-31T04:11:22.592Z,13.14
2022-12-31T04:14:10.301Z,13.18
2022-12-31T04:16:57.824Z,13.18
2022-12-31T04:19:45.097Z,13.14
2022-12-31T04:22:32.418Z,12.90
2022-12-31T04:25:19.841Z,12.68
2022-12-31T04:28:09.806Z,12.58
2022-12-31T04:30:57.175Z,12.42
2022-12-31T04:33:44.629Z,12.33
2022-12-31T04:36:31.995Z,12.25
2022-12-31T04:39:19.566Z,12.24
2022-12-31T04:42:07.391Z,12.18
2022-12-31T04:44:56.017Z,12.12
2022-12-31T04:47:43.266Z,12.09
2022-12-31T04:50:30.666Z,12.03
2022-12-31T04:53:18.112Z,12.02
2022-12-31T04:56:06.253Z,11.96
2022-12-31T04:58:53.681Z,11.91
2022-12-31T05:01:42.607Z,11.85
2022-12-31T05:04:30.068Z,11.90
2022-12-31T05:07:17.662Z,11.84
2022-12-31T05:10:05.712Z,11.76
2022-12-31T05:12:52.984Z,11.75
2022-12-31T05:15:40.942Z,11.85
2022-12-31T05:18:30.553Z,11.85
2022-12-31T05:21:22.252Z,12.03
2022-12-31T05:24:10.090Z,12.08
2022-12-31T05:26:58.181Z,12.29
2022-12-31T05:29:45.384Z,12.45
2022-12-31T05:32:32.905Z,12.45
2022-12-31T05:35:21.950Z,12.30
2022-12-31T05:38:09.708Z,12.36
2022-12-31T05:41:04.968Z,12.37
2022-12-31T05:43:52.575Z,12.56
2022-12-31T05:46:40.253Z,12.44
2022-12-31T05:49:27.986Z,12.28
2022-12-31T05:52:16.926Z,12.09
2022-12-31T05:55:04.580Z,12.06
2022-12-31T05:57:52.147Z,12.07
2022-12-31T06:00:39.686Z,12.02
2022-12-31T06:03:27.067Z,12.16
2022-12-31T06:06:14.671Z,12.24
2022-12-31T06:09:03.840Z,12.36
2022-12-31T06:11:51.559Z,12.43
2022-12-31T06:14:45.280Z,12.53
2022-12-31T06:17:33.336Z,12.73
2022-12-31T06:20:20.849Z,12.83
2022-12-31T06:23:08.260Z,12.90
2022-12-31T06:25:57.221Z,12.92
2022-12-31T06:28:44.658Z,13.07
2022-12-31T06:31:32.570Z,13.08
2022-12-31T06:34:20.417Z,13.18
2022-12-31T06:37:08.076Z,13.13
2022-12-31T06:39:55.549Z,13.14
2022-12-31T06:42:44.425Z,13.28
2022-12-31T06:45:31.896Z,13.34
2022-12-31T06:48:19.410Z,13.36
2022-12-31T06:51:11.869Z,13.43
2022-12-31T06:54:02.492Z,13.56
2022-12-31T06:56:50.325Z,13.74
2022-12-31T06:59:39.815Z,13.84
2022-12-31T07:02:52.887Z,13.86
2022-12-31T07:05:48.297Z,14.10
2022-12-31T07:08:47.711Z,14.16
2022-12-31T07:11:44.125Z,14.29
2022-12-31T07:14:38.825Z,14.26
2022-12-31T07:17:35.212Z,14.34
2022-12-31T07:20:26.144Z,14.35
2022-12-31T07:23:14.336Z,14.46
2022-12-31T07:26:08.261Z,14.53
2022-12-31T07:29:05.906Z,14.70
2022-12-31T07:32:03.645Z,14.67
2022-12-31T07:35:00.328Z,14.81
2022-12-31T07:37:59.912Z,14.77
2022-12-31T07:40:59.813Z,14.79
2022-12-31T07:43:58.047Z,14.83
2022-12-31T07:46:54.659Z,14.83
2022-12-31T07:49:45.826Z,14.88
2022-12-31T07:52:35.346Z,14.82
2022-12-31T07:55:22.667Z,14.76
2022-12-31T07:58:20.672Z,14.59
2022-12-31T08:01:11.419Z,14.61
2022-12-31T08:04:07.728Z,14.59
2022-12-31T08:07:04.075Z,14.57
2022-12-31T08:10:04.269Z,14.51
2022-12-31T08:12:54.119Z,14.55
2022-12-31T08:15:42.705Z,14.47
2022-12-31T08:18:30.726Z,14.55
2022-12-31T08:21:34.791Z,14.74
2022-12-31T08:24:31.350Z,14.88
2022-12-31T08:27:30.428Z,15.02
2022-12-31T08:30:21.346Z,15.22
2022-12-31T08:33:14.082Z,15.55
2022-12-31T08:36:13.287Z,15.55
2022-12-31T08:39:08.285Z,15.50
2022-12-31T08:41:58.946Z,15.47
2022-12-31T08:44:57.119Z,15.69
2022-12-31T08:47:56.436Z,15.67
2022-12-31T08:50:47.675Z,15.74
2022-12-31T08:53:36.346Z,15.63
2022-12-31T08:56:30.031Z,15.70
2022-12-31T08:59:29.996Z,15.80
2022-12-31T09:02:48.218Z,15.98
2022-12-31T09:05:47.418Z,16.06
2022-12-31T09:08:43.143Z,16.04
2022-12-31T09:11:35.616Z,16.06
2022-12-31T09:14:43.017Z,16.16
2022-12-31T09:17:46.937Z,16.12
2022-12-31T09:20:44.447Z,16.14
2022-12-31T09:23:33.185Z,16.08
2022-12-31T09:26:41.598Z,15.99
2022-12-31T09:29:42.943Z,16.10
2022-12-31T09:32:40.585Z,16.18
2022-12-31T09:35:36.945Z,16.14
2022-12-31T09:38:31.581Z,16.20
2022-12-31T09:41:36.686Z,16.25
2022-12-31T09:45:00.480Z,16.31
2022-12-31T09:48:26.557Z,16.18
2022-12-31T09:51:31.437Z,16.12
2022-12-31T09:54:41.757Z,16.20
2022-12-31T09:57:41.968Z,16.22
2022-12-31T10:00:35.840Z,16.25
2022-12-31T10:03:45.185Z,16.30
2022-12-31T10:06:43.848Z,16.31
2022-12-31T10:09:45.274Z,16.38
2022-12-31T10:13:00.202Z,16.36
2022-12-31T10:16:10.708Z,16.28
2022-12-31T10:19:33.311Z,16.29
2022-12-31T10:22:45.643Z,16.25
2022-12-31T10:25:58.034Z,16.28
2022-12-31T10:28:55.462Z,16.34
2022-12-31T10:31:55.847Z,16.26
2022-12-31T10:34:54.227Z,16.37
2022-12-31T10:37:50.206Z,16.56
2022-12-31T10:41:05.262Z,16.53
2022-12-31T10:44:36.051Z,16.49
2022-12-31T10:47:58.671Z,16.51
2022-12-31T10:51:25.766Z,16.28
2022-12-31T10:54:41.943Z,16.12
2022-12-31T10:58:08.116Z,15.94
2022-12-31T11:01:02.455Z,15.97
2022-12-31T11:04:21.023Z,16.00
2022-12-31T11:07:43.823Z,15.98
2022-12-31T11:11:03.624Z,16.04
2022-12-31T11:14:17.413Z,16.03
2022-12-31T11:17:22.381Z,15.98
2022-12-31T11:20:28.640Z,16.00
2022-12-31T11:23:28.416Z,16.02
2022-12-31T11:26:30.859Z,16.09
2022-12-31T11:29:33.986Z,16.03
2022-12-31T11:32:34.438Z,15.97
2022-12-31T11:35:33.759Z,15.90
2022-12-31T11:38:26.237Z,15.91
2022-12-31T11:41:18.174Z,16.01
2022-12-31T11:44:20.244Z,16.10
2022-12-31T11:47:24.298Z,16.24
2022-12-31T11:50:29.367Z,16.26
2022-12-31T11:53:36.229Z,16.33
2022-12-31T11:56:29.655Z,16.41
2022-12-31T11:59:19.832Z,16.52
2022-12-31T12:02:26.920Z,16.56
2022-12-31T12:05:20.395Z,16.70
2022-12-31T12:08:08.093Z,16.76
2022-12-31T12:11:08.020Z,16.75
2022-12-31T12:13:55.847Z,16.78
2022-12-31T12:16:45.165Z,16.81
2022-12-31T12:19:35.114Z,16.81
2022-12-31T12:22:25.032Z,16.92
2022-12-31T12:25:20.732Z,16.91
2022-12-31T12:28:24.736Z,16.91
2022-12-31T12:31:21.202Z,16.97
2022-12-31T12:34:24.848Z,16.93
2022-12-31T12:37:28.312Z,16.84
2022-12-31T12:40:33.116Z,16.79
2022-12-31T12:43:26.708Z,16.73
2022-12-31T12:46:22.085Z,16.75
2022-12-31T12:49:24.309Z,16.86
2022-12-31T12:52:34.145Z,16.85
2022-12-31T12:55:27.567Z,16.87
2022-12-31T12:58:27.725Z,16.90
2022-12-31T13:01:25.887Z,16.92
2022-12-31T13:04:45.047Z,16.91
2022-12-31T13:07:48.278Z,16.88
2022-12-31T13:10:50.941Z,16.87
2022-12-31T13:13:45.145Z,16.89
2022-12-31T13:16:40.378Z,17.11
2022-12-31T13:19:36.316Z,17.05
2022-12-31T13:22:34.171Z,16.95
2022-12-31T13:25:31.011Z,16.91
2022-12-31T13:28:20.807Z,16.92
2022-12-31T13:31:13.802Z,16.94
2022-12-31T13:34:07.299Z,16.99
2022-12-31T13:36:58.854Z,16.94
2022-12-31T13:39:59.507Z,16.89
2022-12-31T13:42:53.852Z,16.85
2022-12-31T13:45:45.661Z,16.94
2022-12-31T13:48:40.313Z,16.88
2022-12-31T13:51:36.755Z,16.78
2022-12-31T13:54:36.271Z,16.73
2022-12-31T13:57:39.210Z,16.67
2022-12-31T14:00:30.037Z,16.54
2022-12-31T14:03:23.712Z,16.39
2022-12-31T14:06:22.162Z,16.12
2022-12-31T14:09:14.891Z,16.10
2022-12-31T14:12:22.461Z,15.90
2022-12-31T14:15:19.674Z,15.79
2022-12-31T14:18:17.175Z,15.85
2022-12-31T14:21:13.433Z,15.87
2022-12-31T14:24:08.212Z,15.89
2022-12-31T14:26:59.888Z,15.71
2022-12-31T14:29:51.017Z,15.67
2022-12-31T14:33:15.519Z,15.73
2022-12-31T14:36:14.315Z,15.63
2022-12-31T14:39:19.848Z,15.61
2022-12-31T14:42:20.085Z,15.62
2022-12-31T14:45:23.512Z,15.62
2022-12-31T14:48:26.045Z,15.56
2022-12-31T14:51:14.685Z,15.63
2022-12-31T14:54:02.370Z,15.62
2022-12-31T14:56:51.484Z,15.58
2022-12-31T14:59:40.815Z,15.53
2022-12-31T15:02:31.320Z,15.58
2022-12-31T15:05:23.926Z,15.55
2022-12-31T15:08:48.579Z,15.39
2022-12-31T15:11:49.966Z,15.36
2022-12-31T15:15:09.494Z,15.21
2022-12-31T15:18:11.606Z,15.08
2022-12-31T15:21:33.744Z,15.00
2022-12-31T15:24:22.928Z,15.15
2022-12-31T15:27:32.364Z,15.06
2022-12-31T15:30:38.143Z,14.99
2022-12-31T15:33:32.698Z,15.05
2022-12-31T15:36:23.836Z,15.15
2022-12-31T15:39:41.376Z,15.08
2022-12-31T15:42:40.652Z,15.06
2022-12-31T15:45:34.327Z,15.03
2022-12-31T15:48:27.671Z,15.05
2022-12-31T15:51:24.101Z,15.10
2022-12-31T15:54:26.034Z,15.08
2022-12-31T15:57:19.382Z,15.14
2022-12-31T16:00:10.066Z,15.07
2022-12-31T16:02:57.887Z,15.24
2022-12-31T16:05:45.342Z,15.21
2022-12-31T16:08:36.664Z,15.10
2022-12-31T16:11:25.398Z,15.13
2022-12-31T16:14:21.598Z,15.10
2022-12-31T16:17:26.004Z,15.30
2022-12-31T16:20:25.620Z,15.25
2022-12-31T16:23:24.760Z,15.23
2022-12-31T16:26:13.844Z,15.14
2022-12-31T16:29:04.448Z,15.16
2022-12-31T16:31:54.615Z,15.11
2022-12-31T16:34:42.447Z,15.10
2022-12-31T16:37:30.319Z,15.14
2022-12-31T16:40:24.944Z,15.15
2022-12-31T16:43:30.057Z,15.07
2022-12-31T16:46:23.074Z,15.10
2022-12-31T16:49:19.926Z,14.99
2022-12-31T16:52:18.746Z,14.89
2022-12-31T16:55:09.727Z,14.94
2022-12-31T16:58:02.111Z,14.88
2022-12-31T17:00:52.796Z,14.83
2022-12-31T17:03:44.119Z,14.82
2022-12-31T17:06:33.955Z,14.88
2022-12-31T17:09:23.514Z,14.85
2022-12-31T17:12:17.781Z,14.78
2022-12-31T17:15:07.352Z,14.69
2022-12-31T17:17:58.735Z,14.78
2022-12-31T17:20:46.518Z,14.73
2022-12-31T17:23:37.109Z,14.69
2022-12-31T17:26:28.377Z,14.80
2022-12-31T17:29:26.041Z,14.82
2022-12-31T17:32:30.431Z,14.78
2022-12-31T17:35:35.574Z,14.80
2022-12-31T17:38:41.244Z,14.99
2022-12-31T17:41:29.479Z,14.96
2022-12-31T17:44:21.492Z,15.07
2022-12-31T17:47:11.865Z,15.11
2022-12-31T17:49:59.338Z,15.12
2022-12-31T17:52:49.594Z,15.14
2022-12-31T17:55:37.303Z,15.20
2022-12-31T17:58:30.029Z,15.11
2022-12-31T18:01:19.998Z,15.31
2022-12-31T18:04:12.630Z,15.45
2022-12-31T18:07:00.232Z,15.51
2022-12-31T18:09:49.127Z,15.44
2022-12-31T18:12:36.701Z,15.52
2022-12-31T18:15:25.815Z,15.47
2022-12-31T18:18:24.785Z,15.44
2022-12-31T18:21:19.453Z,15.62
2022-12-31T18:24:08.009Z,15.53
2022-12-31T18:26:56.789Z,15.49
2022-12-31T18:29:44.694Z,15.48
2022-12-31T18:32:33.273Z,15.50
2022-12-31T18:38:31.033Z,15.59
2022-12-31T18:41:21.124Z,15.62
2022-12-31T18:44:12.764Z,15.40
2022-12-31T18:47:00.414Z,15.51
2022-12-31T18:49:48.872Z,15.40
2022-12-31T18:52:36.471Z,15.48
2022-12-31T18:55:28.174Z,15.47
2022-12-31T18:58:15.854Z,15.33
2022-12-31T19:01:05.042Z,15.44
2022-12-31T19:03:52.893Z,15.54
2022-12-31T19:06:40.662Z,15.61
2022-12-31T19:09:45.136Z,15.49
2022-12-31T19:12:34.042Z,15.46
2022-12-31T19:15:27.081Z,15.48
2022-12-31T19:18:15.763Z,15.56
2022-12-31T19:21:03.714Z,15.48
2022-12-31T19:23:53.294Z,15.50
2022-12-31T19:26:43.530Z,15.45
2022-12-31T19:29:31.071Z,15.22
2022-12-31T19:32:18.495Z,15.30
2022-12-31T19:35:07.632Z,15.22
2022-12-31T19:37:56.535Z,15.31
2022-12-31T19:40:44.223Z,15.22
2022-12-31T19:43:31.980Z,15.24
2022-12-31T19:46:20.353Z,15.30
2022-12-31T19:49:08.086Z,15.28
2022-12-31T19:51:56.865Z,15.19
2022-12-31T19:54:44.172Z,15.19
2022-12-31T19:57:31.568Z,15.06
2022-12-31T20:00:20.506Z,15.05
2022-12-31T20:03:07.997Z,15.09
2022-12-31T20:06:04.014Z,15.10
2022-12-31T20:08:53.387Z,15.05
2022-12-31T20:11:40.783Z,15.01
2022-12-31T20:14:27.981Z,15.21
2022-12-31T20:17:15.495Z,15.15
2022-12-31T20:20:03.009Z,15.19
2022-12-31T20:22:50.770Z,15.21
2022-12-31T20:25:39.732Z,15.16
2022-12-31T20:28:27.172Z,15.14
2022-12-31T20:31:16.372Z,15.12
2022-12-31T20:34:03.921Z,15.09
2022-12-31T20:36:51.100Z,15.07
2022-12-31T20:39:39.103Z,15.09
2022-12-31T20:42:28.076Z,15.09
2022-12-31T20:45:15.553Z,15.13
2022-12-31T20:48:02.834Z,15.10
2022-12-31T20:50:55.966Z,15.06
2022-12-31T20:53:48.518Z,15.06
2022-12-31T20:56:38.387Z,14.97
2022-12-31T20:59:27.266Z,14.96
2022-12-31T21:02:29.497Z,15.06
2022-12-31T21:05:23.512Z,15.11
2022-12-31T21:08:11.282Z,15.17
2022-12-31T21:10:58.596Z,15.34
2022-12-31T21:13:45.133Z,15.40
2022-12-31T21:16:34.231Z,15.41
2022-12-31T21:19:21.643Z,15.46
2022-12-31T21:22:08.872Z,15.53
2022-12-31T21:24:56.298Z,15.48
2022-12-31T21:27:44.029Z,15.43
2022-12-31T21:30:32.174Z,15.59
2022-12-31T21:33:21.144Z,15.53
2022-12-31T21:36:08.860Z,15.61
2022-12-31T21:38:56.192Z,15.54
2022-12-31T21:41:52.418Z,15.43
2022-12-31T21:44:39.803Z,15.61
2022-12-31T21:47:47.581Z,15.43
2022-12-31T21:50:37.001Z,15.40
2022-12-31T21:53:32.308Z,15.46
2022-12-31T21:56:24.245Z,15.53
2022-12-31T21:59:29.384Z,15.65
2022-12-31T22:02:34.243Z,15.64
2022-12-31T22:05:25.302Z,15.60
2022-12-31T22:08:14.200Z,15.48
2022-12-31T22:11:01.568Z,15.56
2022-12-31T22:13:49.213Z,15.54
2022-12-31T22:16:36.604Z,15.49
2022-12-31T22:19:23.693Z,15.59
2022-12-31T22:22:11.247Z,15.59
2022-12-31T22:25:00.562Z,15.60
2022-12-31T22:28:04.413Z,15.60
2022-12-31T22:30:56.077Z,15.57
2022-12-31T22:33:44.182Z,15.54
2022-12-31T22:36:31.745Z,15.51
2022-12-31T22:39:43.809Z,15.59
2022-12-31T22:42:28.505Z,15.51
2022-12-31T22:45:15.724Z,15.38
2022-12-31T22:48:02.976Z,15.48
2022-12-31T22:50:56.484Z,15.42
2022-12-31T22:53:44.407Z,15.42
2022-12-31T22:56:31.999Z,15.38
2022-12-31T22:59:20.789Z,15.37
2022-12-31T23:02:08.063Z,15.54
2022-12-31T23:05:15.278Z,15.46
2022-12-31T23:08:12.889Z,15.42
2022-12-31T23:11:06.140Z,15.51
2022-12-31T23:14:11.313Z,15.51
2022-12-31T23:17:30.923Z,15.53
2022-12-31T23:20:39.987Z,15.51
2022-12-31T23:23:27.537Z,15.40
2022-12-31T23:26:14.824Z,15.33
2022-12-31T23:29:02.979Z,15.34
2022-12-31T23:31:50.558Z,15.34
2022-12-31T23:34:39.752Z,15.42
2022-12-31T23:37:27.432Z,15.34
2022-12-31T23:40:20.867Z,15.33
2022-12-31T23:43:09.923Z,15.38
2022-12-31T23:45:57.332Z,15.37
2022-12-31T23:48:45.182Z,15.44
2022-12-31T23:51:36.153Z,15.41
2022-12-31T23:54:23.812Z,15.39
2022-12-31T23:57:11.247Z,15.43
2022-12-31T23:59:58.836Z,15.34
